createdAt,value
2019-06-10T00:01:57.442Z,4.37
2019-06-10T00:04:43.370Z,4.67
2019-06-10T00:07:28.355Z,4.30
2019-06-10T00:10:13.724Z,4.08
2019-06-10T00:13:01.008Z,4.20
2019-06-10T00:15:45.472Z,5.12
2019-06-10T00:18:40.701Z,4.67
2019-06-10T00:21:17.283Z,4.90
2019-06-10T00:24:02.609Z,4.97
2019-06-10T00:26:51.036Z,4.87
2019-06-10T00:29:35.893Z,5.22
2019-06-10T00:32:21.527Z,4.90
2019-06-10T00:35:07.764Z,5.12
2019-06-10T00:37:52.975Z,5.03
2019-06-10T00:40:37.689Z,5.10
2019-06-10T00:43:22.498Z,4.90
2019-06-10T00:46:07.766Z,5.00
2019-06-10T00:48:53.790Z,5.08
2019-06-10T00:51:41.458Z,5.62
2019-06-10T00:54:26.287Z,5.87
2019-06-10T00:57:12.364Z,4.92
2019-06-10T00:59:57.881Z,5.58
2019-06-10T01:02:42.839Z,5.53
2019-06-10T01:05:27.636Z,5.78
2019-06-10T01:08:15.564Z,6.08
2019-06-10T01:11:04.124Z,6.03
2019-06-10T01:13:46.145Z,6.00
2019-06-10T01:16:31.764Z,6.40
2019-06-10T01:19:16.814Z,5.90
2019-06-10T01:22:01.672Z,5.33
2019-06-10T01:24:46.936Z,6.35
2019-06-10T01:27:31.761Z,5.67
2019-06-10T01:30:22.588Z,4.72
2019-06-10T01:33:03.611Z,4.83
2019-06-10T01:35:48.475Z,4.70
2019-06-10T01:38:33.294Z,4.12
2019-06-10T01:41:21.155Z,4.40
2019-06-10T01:44:06.476Z,4.03
2019-06-10T01:46:51.686Z,4.35
2019-06-10T01:49:36.758Z,4.40
2019-06-10T01:52:21.597Z,4.35
2019-06-10T01:55:07.561Z,4.20
2019-06-10T01:57:52.745Z,4.50
2019-06-10T02:00:57.818Z,5.37
2019-06-10T02:03:42.445Z,5.17
2019-06-10T02:06:31.483Z,6.03
2019-06-10T02:09:17.194Z,5.67
2019-06-10T02:12:03.053Z,5.92
2019-06-10T02:14:48.054Z,6.35
2019-06-10T02:17:32.793Z,5.65
2019-06-10T02:20:18.474Z,5.92
2019-06-10T02:23:04.319Z,5.78
2019-06-10T02:25:51.270Z,6.00
2019-06-10T02:28:36.641Z,5.95
2019-06-10T02:31:30.107Z,6.22
2019-06-10T02:34:08.690Z,6.95
2019-06-10T02:36:54.023Z,7.15
2019-06-10T02:39:39.405Z,5.80
2019-06-10T02:42:30.707Z,6.33
2019-06-10T02:45:18.317Z,5.65
2019-06-10T02:48:03.908Z,5.83
2019-06-10T02:50:54.001Z,5.80
2019-06-10T02:53:38.242Z,5.75
2019-06-10T02:56:30.004Z,6.05
2019-06-10T02:59:13.070Z,5.70
2019-06-10T03:01:57.123Z,5.95
2019-06-10T03:04:43.343Z,4.90
2019-06-10T03:07:31.088Z,6.25
2019-06-10T03:10:16.320Z,6.30
2019-06-10T03:13:05.286Z,5.28
2019-06-10T03:15:52.311Z,5.75
2019-06-10T03:18:37.542Z,5.67
2019-06-10T03:21:24.241Z,5.62
2019-06-10T03:24:09.190Z,5.70
2019-06-10T03:26:54.551Z,5.37
2019-06-10T03:29:39.205Z,5.95
2019-06-10T03:32:32.611Z,6.17
2019-06-10T03:35:13.224Z,5.37
2019-06-10T03:37:58.242Z,6.20
2019-06-10T03:40:43.457Z,6.10
2019-06-10T03:43:28.463Z,5.47
2019-06-10T03:46:13.712Z,6.10
2019-06-10T03:48:59.098Z,6.47
2019-06-10T03:51:43.785Z,6.00
2019-06-10T03:54:29.561Z,5.87
2019-06-10T03:57:14.969Z,5.75
2019-06-10T04:00:01.974Z,5.42
2019-06-10T04:02:46.649Z,6.03
2019-06-10T04:05:33.164Z,5.97
2019-06-10T04:08:19.421Z,5.62
2019-06-10T04:11:04.453Z,5.62
2019-06-10T04:13:49.490Z,6.03
2019-06-10T04:16:34.268Z,5.58
2019-06-10T04:19:19.641Z,5.80
2019-06-10T04:22:04.246Z,6.55
2019-06-10T04:24:49.125Z,7.87
2019-06-10T04:27:33.821Z,8.23
2019-06-10T04:30:23.204Z,8.23
2019-06-10T04:33:07.497Z,7.78
2019-06-10T04:35:52.281Z,7.62
2019-06-10T04:38:37.146Z,7.87
2019-06-10T04:41:23.450Z,6.97
2019-06-10T04:44:08.622Z,6.55
2019-06-10T04:46:53.646Z,6.20
2019-06-10T04:49:38.530Z,6.67
2019-06-10T04:52:25.148Z,6.20
2019-06-10T04:55:12.635Z,6.72
2019-06-10T04:57:57.857Z,6.50
2019-06-10T05:00:42.977Z,6.50
2019-06-10T05:03:28.360Z,6.45
2019-06-10T05:06:14.334Z,6.00
2019-06-10T05:08:59.186Z,6.28
2019-06-10T05:11:43.958Z,5.92
2019-06-10T05:14:30.295Z,6.17
2019-06-10T05:17:15.719Z,6.10
2019-06-10T05:20:02.529Z,6.10
2019-06-10T05:22:47.533Z,6.20
2019-06-10T05:25:32.727Z,7.10
2019-06-10T05:28:18.136Z,6.37
2019-06-10T05:31:03.112Z,6.60
2019-06-10T05:33:48.234Z,6.05
2019-06-10T05:36:34.602Z,6.10
2019-06-10T05:39:20.998Z,6.62
2019-06-10T05:42:07.000Z,6.78
2019-06-10T05:44:52.487Z,7.03
2019-06-10T05:47:37.428Z,6.62
2019-06-10T05:50:23.712Z,6.28
2019-06-10T05:53:09.178Z,6.45
2019-06-10T05:55:54.093Z,6.53
2019-06-10T05:58:38.873Z,6.35
2019-06-10T06:01:24.537Z,6.05
2019-06-10T06:04:12.646Z,6.40
2019-06-10T06:06:57.674Z,5.10
2019-06-10T06:09:42.741Z,4.90
2019-06-10T06:12:29.105Z,4.72
2019-06-10T06:15:14.965Z,4.72
2019-06-10T06:18:07.198Z,3.85
2019-06-10T06:20:46.470Z,3.70
2019-06-10T06:23:33.885Z,4.67
2019-06-10T06:26:18.081Z,4.33
2019-06-10T06:29:04.862Z,4.78
2019-06-10T06:31:52.103Z,4.67
2019-06-10T06:34:38.687Z,4.17
2019-06-10T06:37:23.425Z,4.50
2019-06-10T06:40:08.634Z,4.53
2019-06-10T06:42:53.617Z,4.50
2019-06-10T06:45:39.000Z,3.62
2019-06-10T06:48:24.238Z,3.95
2019-06-10T06:51:08.991Z,3.40
2019-06-10T06:53:56.232Z,3.83
2019-06-10T06:56:41.084Z,3.83
2019-06-10T06:59:27.436Z,3.45
2019-06-10T07:02:12.491Z,4.00
2019-06-10T07:04:57.803Z,3.80
2019-06-10T07:07:43.464Z,3.55
2019-06-10T07:10:30.935Z,3.58
2019-06-10T07:13:16.573Z,3.50
2019-06-10T07:16:02.925Z,2.87
2019-06-10T07:18:50.288Z,2.42
2019-06-10T07:21:55.721Z,2.40
2019-06-10T07:24:23.164Z,2.40
2019-06-10T07:27:08.293Z,2.90
2019-06-10T07:29:53.221Z,2.10
2019-06-10T07:32:39.204Z,2.12
2019-06-10T07:35:25.089Z,1.82
2019-06-10T07:38:12.235Z,1.75
2019-06-10T07:40:57.159Z,1.60
2019-06-10T07:43:48.975Z,1.80
2019-06-10T07:46:28.905Z,1.95
2019-06-10T07:49:13.690Z,1.20
2019-06-10T07:52:14.882Z,1.55
2019-06-10T07:54:49.294Z,1.47
2019-06-10T07:57:37.502Z,1.75
2019-06-10T08:00:22.970Z,1.60
2019-06-10T08:03:07.628Z,2.22
2019-06-10T08:05:52.692Z,1.20
2019-06-10T08:08:38.840Z,1.30
2019-06-10T08:11:24.356Z,1.57
2019-06-10T08:14:09.549Z,1.47
2019-06-10T08:16:54.327Z,1.35
2019-06-10T08:19:42.845Z,2.00
2019-06-10T08:22:33.440Z,1.82
2019-06-10T08:25:13.325Z,1.90
2019-06-10T08:27:58.675Z,2.00
2019-06-10T08:30:46.128Z,1.72
2019-06-10T08:33:33.112Z,1.77
2019-06-10T08:36:18.621Z,1.70
2019-06-10T08:39:05.374Z,1.42
2019-06-10T08:41:52.676Z,1.35
2019-06-10T08:44:37.148Z,1.22
2019-06-10T08:47:22.921Z,1.20
2019-06-10T08:50:08.149Z,1.30
2019-06-10T08:53:09.037Z,1.40
2019-06-10T08:55:42.872Z,1.72
2019-06-10T08:58:27.109Z,1.52
2019-06-10T09:01:13.285Z,1.70
2019-06-10T09:03:58.763Z,1.40
2019-06-10T09:06:48.791Z,1.60
2019-06-10T09:09:33.063Z,1.95
2019-06-10T09:12:30.403Z,1.80
2019-06-10T09:15:05.627Z,1.77
2019-06-10T09:17:55.251Z,1.50
2019-06-10T09:20:40.317Z,1.90
2019-06-10T09:23:25.695Z,1.67
2019-06-10T09:26:12.525Z,1.57
2019-06-10T09:28:57.963Z,1.75
2019-06-10T09:31:46.755Z,2.05
2019-06-10T09:34:29.139Z,1.65
2019-06-10T09:37:14.224Z,2.00
2019-06-10T09:39:59.862Z,1.90
2019-06-10T09:42:48.134Z,2.20
2019-06-10T09:45:33.198Z,2.45
2019-06-10T09:48:22.705Z,3.10
2019-06-10T09:51:08.345Z,2.20
2019-06-10T09:54:02.441Z,1.95
2019-06-10T09:56:42.771Z,1.42
2019-06-10T09:59:26.893Z,1.52
2019-06-10T10:02:12.579Z,1.10
2019-06-10T10:04:58.542Z,1.75
2019-06-10T10:07:46.988Z,1.82
2019-06-10T10:10:35.851Z,1.77
2019-06-10T10:13:22.518Z,2.30
2019-06-10T10:16:07.554Z,4.05
2019-06-10T10:19:00.220Z,5.62
2019-06-10T10:21:41.306Z,3.33
2019-06-10T10:24:25.878Z,2.25
2019-06-10T10:27:13.237Z,3.25
2019-06-10T10:29:57.563Z,2.70
2019-06-10T10:32:47.112Z,3.25
2019-06-10T10:35:32.628Z,2.95
2019-06-10T10:38:17.240Z,2.47
2019-06-10T10:41:04.477Z,2.80
2019-06-10T10:43:52.377Z,2.08
2019-06-10T10:46:36.695Z,2.30
2019-06-10T10:49:23.152Z,2.45
2019-06-10T10:52:07.887Z,2.35
2019-06-10T10:54:54.306Z,2.33
2019-06-10T10:57:40.282Z,2.55
2019-06-10T11:00:36.444Z,2.30
2019-06-10T11:03:16.791Z,2.00
2019-06-10T11:06:02.841Z,2.20
2019-06-10T11:08:48.308Z,2.12
2019-06-10T11:11:33.688Z,2.17
2019-06-10T11:14:19.147Z,2.17
2019-06-10T11:17:03.922Z,2.00
2019-06-10T11:19:49.324Z,2.08
2019-06-10T11:22:34.698Z,2.62
2019-06-10T11:25:19.869Z,2.45
2019-06-10T11:28:05.163Z,2.52
2019-06-10T11:30:52.693Z,3.98
2019-06-10T11:33:37.165Z,3.30
2019-06-10T11:36:22.796Z,3.05
2019-06-10T11:39:08.078Z,2.60
2019-06-10T11:41:53.347Z,2.70
2019-06-10T11:44:39.575Z,2.60
2019-06-10T11:47:24.726Z,2.60
2019-06-10T11:50:12.128Z,2.20
2019-06-10T11:53:00.544Z,2.40
2019-06-10T11:55:43.813Z,2.58
2019-06-10T11:58:28.642Z,2.17
2019-06-10T12:01:13.585Z,2.42
2019-06-10T12:04:00.145Z,2.60
2019-06-10T12:06:45.328Z,2.72
2019-06-10T12:09:30.238Z,2.60
2019-06-10T12:12:15.327Z,2.65
2019-06-10T12:15:01.460Z,2.65
2019-06-10T12:17:50.902Z,2.87
2019-06-10T12:20:33.547Z,2.52
2019-06-10T12:23:18.805Z,2.65
2019-06-10T12:26:05.451Z,2.20
2019-06-10T12:28:54.611Z,2.83
2019-06-10T12:31:38.239Z,2.55
2019-06-10T12:34:23.511Z,2.30
2019-06-10T12:37:15.527Z,3.20
2019-06-10T12:40:12.598Z,2.20
2019-06-10T12:42:59.246Z,2.37
2019-06-10T12:45:43.929Z,2.42
2019-06-10T12:48:29.148Z,2.30
2019-06-10T12:51:14.119Z,2.67
2019-06-10T12:53:59.425Z,2.85
2019-06-10T12:56:44.766Z,3.15
2019-06-10T12:59:32.497Z,3.12
2019-06-10T13:02:23.284Z,2.70
2019-06-10T13:05:07.033Z,3.58
2019-06-10T13:07:53.635Z,2.95
2019-06-10T13:10:43.092Z,2.72
2019-06-10T13:13:28.404Z,2.87
2019-06-10T13:16:14.329Z,3.40
2019-06-10T13:19:00.132Z,3.47
2019-06-10T13:21:45.001Z,2.95
2019-06-10T13:24:29.814Z,2.67
2019-06-10T13:27:17.343Z,2.90
2019-06-10T13:30:04.893Z,3.25
2019-06-10T13:32:52.552Z,3.42
2019-06-10T13:35:36.710Z,3.75
2019-06-10T13:38:25.402Z,3.08
2019-06-10T13:41:08.634Z,2.98
2019-06-10T13:43:53.644Z,2.90
2019-06-10T13:46:38.689Z,2.92
2019-06-10T13:49:25.564Z,2.70
2019-06-10T13:52:16.258Z,2.67
2019-06-10T13:54:57.119Z,2.70
2019-06-10T13:57:44.766Z,2.62
2019-06-10T14:00:40.773Z,3.17
2019-06-10T14:03:16.613Z,2.62
2019-06-10T14:06:11.325Z,2.80
2019-06-10T14:08:48.071Z,2.72
2019-06-10T14:11:34.002Z,2.52
2019-06-10T14:14:20.196Z,2.45
2019-06-10T14:17:07.451Z,2.50
2019-06-10T14:19:52.498Z,2.42
2019-06-10T14:22:37.454Z,2.45
2019-06-10T14:25:23.266Z,2.42
2019-06-10T14:28:10.595Z,2.60
2019-06-10T14:30:55.931Z,3.00
2019-06-10T14:33:42.942Z,3.00
2019-06-10T14:36:28.185Z,3.00
2019-06-10T14:39:15.630Z,2.60
2019-06-10T14:42:00.526Z,2.90
2019-06-10T14:44:45.474Z,2.85
2019-06-10T14:47:32.495Z,2.70
2019-06-10T14:50:18.557Z,2.30
2019-06-10T14:53:04.763Z,2.45
2019-06-10T14:55:52.868Z,2.77
2019-06-10T14:58:36.878Z,2.77
2019-06-10T15:01:25.559Z,3.10
2019-06-10T15:04:10.075Z,2.83
2019-06-10T15:06:55.563Z,2.60
2019-06-10T15:09:40.218Z,2.30
2019-06-10T15:12:25.122Z,2.45
2019-06-10T15:15:10.439Z,2.55
2019-06-10T15:17:55.082Z,2.92
2019-06-10T15:20:42.620Z,2.77
2019-06-10T15:23:26.623Z,2.52
2019-06-10T15:26:14.431Z,2.90
2019-06-10T15:28:58.466Z,3.10
2019-06-10T15:31:43.321Z,2.70
2019-06-10T15:34:28.026Z,2.33
2019-06-10T15:37:15.817Z,2.45
2019-06-10T15:39:59.648Z,2.35
2019-06-10T15:42:46.297Z,2.87
2019-06-10T15:45:32.489Z,3.30
2019-06-10T15:48:18.832Z,2.85
2019-06-10T15:51:04.671Z,2.67
2019-06-10T15:53:49.490Z,3.00
2019-06-10T15:56:45.625Z,3.02
2019-06-10T15:59:21.427Z,2.87
2019-06-10T16:02:06.721Z,3.10
2019-06-10T16:04:52.699Z,3.47
2019-06-10T16:07:37.891Z,3.00
2019-06-10T16:10:27.480Z,2.75
2019-06-10T16:13:10.503Z,2.83
2019-06-10T16:15:55.650Z,2.85
2019-06-10T16:18:42.382Z,2.62
2019-06-10T16:21:27.305Z,3.10
2019-06-10T16:24:13.675Z,3.30
2019-06-10T16:27:03.165Z,3.12
2019-06-10T16:29:47.280Z,3.37
2019-06-10T16:32:33.963Z,3.15
2019-06-10T16:35:18.950Z,3.50
2019-06-10T16:38:04.269Z,3.25
2019-06-10T16:40:49.062Z,3.25
2019-06-10T16:43:33.807Z,3.55
2019-06-10T16:46:18.476Z,3.27
2019-06-10T16:49:03.443Z,3.05
2019-06-10T16:51:48.686Z,3.92
2019-06-10T16:54:33.414Z,3.52
2019-06-10T16:57:18.216Z,4.05
2019-06-10T17:00:11.974Z,3.80
2019-06-10T17:02:55.141Z,3.85
2019-06-10T17:05:42.465Z,3.42
2019-06-10T17:08:30.289Z,3.35
2019-06-10T17:11:15.473Z,3.90
2019-06-10T17:14:00.329Z,4.03
2019-06-10T17:16:45.149Z,4.37
2019-06-10T17:19:30.361Z,4.22
2019-06-10T17:22:15.677Z,4.97
2019-06-10T17:25:00.510Z,3.52
2019-06-10T17:27:45.346Z,3.65
2019-06-10T17:30:34.635Z,3.95
2019-06-10T17:33:22.916Z,4.00
2019-06-10T17:36:08.255Z,5.00
2019-06-10T17:38:52.983Z,4.30
2019-06-10T17:41:37.707Z,5.20
2019-06-10T17:44:24.277Z,5.15
2019-06-10T17:47:09.824Z,5.28
2019-06-10T17:49:54.761Z,5.70
2019-06-10T17:52:39.483Z,5.62
2019-06-10T17:55:26.531Z,5.10
2019-06-10T17:58:13.062Z,6.03
2019-06-10T18:00:58.201Z,5.55
2019-06-10T18:03:43.835Z,5.65
2019-06-10T18:06:29.689Z,5.45
2019-06-10T18:09:14.942Z,4.97
2019-06-10T18:12:02.393Z,5.12
2019-06-10T18:14:47.467Z,4.53
2019-06-10T18:17:34.862Z,5.17
2019-06-10T18:20:19.306Z,4.75
2019-06-10T18:23:04.395Z,4.45
2019-06-10T18:25:49.317Z,4.58
2019-06-10T18:28:53.727Z,4.42
2019-06-10T18:31:23.400Z,4.20
2019-06-10T18:34:08.286Z,3.92
2019-06-10T18:36:53.211Z,4.00
2019-06-10T18:39:37.948Z,4.62
2019-06-10T18:42:23.641Z,4.85
2019-06-10T18:45:10.283Z,3.87
2019-06-10T18:47:57.096Z,4.30
2019-06-10T18:50:43.224Z,3.98
2019-06-10T18:53:28.485Z,4.10
2019-06-10T18:56:13.782Z,4.33
2019-06-10T18:59:13.430Z,3.95
2019-06-10T19:01:45.525Z,4.20
2019-06-10T19:04:35.013Z,3.92
2019-06-10T19:07:18.947Z,3.67
2019-06-10T19:10:06.528Z,3.50
2019-06-10T19:12:53.132Z,3.80
2019-06-10T19:15:39.780Z,3.70
2019-06-10T19:18:26.153Z,3.90
2019-06-10T19:21:12.829Z,3.47
2019-06-10T19:23:59.528Z,3.52
2019-06-10T19:26:45.157Z,4.22
2019-06-10T19:29:38.406Z,3.70
2019-06-10T19:32:17.559Z,3.25
2019-06-10T19:35:06.997Z,3.37
2019-06-10T19:37:51.698Z,3.52
2019-06-10T19:40:38.362Z,3.33
2019-06-10T19:43:25.117Z,3.58
2019-06-10T19:46:10.005Z,3.55
2019-06-10T19:48:59.497Z,3.65
2019-06-10T19:51:44.064Z,3.90
2019-06-10T19:54:28.430Z,4.10
2019-06-10T19:57:13.819Z,5.72
2019-06-10T20:00:08.510Z,4.62
2019-06-10T20:02:47.037Z,5.15
2019-06-10T20:05:34.315Z,5.65
2019-06-10T20:08:19.494Z,5.95
2019-06-10T20:11:04.518Z,5.85
2019-06-10T20:13:49.706Z,5.80
2019-06-10T20:16:37.749Z,6.17
2019-06-10T20:19:23.118Z,6.28
2019-06-10T20:22:08.593Z,6.20
2019-06-10T20:24:53.811Z,6.50
2019-06-10T20:27:39.703Z,6.40
2019-06-10T20:30:28.861Z,6.37
2019-06-10T20:33:14.669Z,6.67
2019-06-10T20:35:59.668Z,7.15
2019-06-10T20:38:48.191Z,6.53
2019-06-10T20:41:32.635Z,6.80
2019-06-10T20:44:17.406Z,6.42
2019-06-10T20:47:02.700Z,6.37
2019-06-10T20:49:51.408Z,6.33
2019-06-10T20:52:34.937Z,6.35
2019-06-10T20:55:20.198Z,5.80
2019-06-10T20:58:07.335Z,5.80
2019-06-10T21:00:56.865Z,6.85
2019-06-10T21:03:39.073Z,5.70
2019-06-10T21:06:26.106Z,6.00
2019-06-10T21:09:13.155Z,5.40
2019-06-10T21:11:57.695Z,5.12
2019-06-10T21:14:44.173Z,4.45
2019-06-10T21:17:29.478Z,4.08
2019-06-10T21:20:16.878Z,3.72
2019-06-10T21:23:03.048Z,3.80
2019-06-10T21:25:50.725Z,3.47
2019-06-10T21:28:35.380Z,3.50
2019-06-10T21:31:20.262Z,3.83
2019-06-10T21:34:05.089Z,3.65
2019-06-10T21:36:49.834Z,4.28
2019-06-10T21:39:34.691Z,3.67
2019-06-10T21:42:19.488Z,3.05
2019-06-10T21:45:04.968Z,3.22
2019-06-10T21:47:50.417Z,3.60
2019-06-10T21:50:35.576Z,3.72
2019-06-10T21:53:22.300Z,3.17
2019-06-10T21:56:07.126Z,3.35
2019-06-10T21:58:55.044Z,3.70
2019-06-10T22:01:38.934Z,3.20
2019-06-10T22:04:23.966Z,3.75
2019-06-10T22:07:08.698Z,3.08
2019-06-10T22:09:56.019Z,3.20
2019-06-10T22:12:42.154Z,3.65
2019-06-10T22:15:27.222Z,2.98
2019-06-10T22:18:12.688Z,2.50
2019-06-10T22:20:57.994Z,3.22
2019-06-10T22:23:44.600Z,2.72
2019-06-10T22:26:32.118Z,2.95
2019-06-10T22:29:16.466Z,2.15
2019-06-10T22:32:02.627Z,2.37
2019-06-10T22:34:47.691Z,1.70
2019-06-10T22:37:32.964Z,1.52
2019-06-10T22:40:18.121Z,1.50
2019-06-10T22:43:03.511Z,1.45
2019-06-10T22:45:49.472Z,1.80
2019-06-10T22:48:34.691Z,1.52
2019-06-10T22:51:19.431Z,1.65
2019-06-10T22:54:04.488Z,1.42
2019-06-10T22:56:49.478Z,1.87
2019-06-10T22:59:34.697Z,1.40
2019-06-10T23:02:19.421Z,1.80
2019-06-10T23:05:05.616Z,2.20
2019-06-10T23:07:53.261Z,1.52
2019-06-10T23:10:38.422Z,1.47
2019-06-10T23:13:23.321Z,1.52
2019-06-10T23:16:08.130Z,1.80
2019-06-10T23:18:55.001Z,1.67
2019-06-10T23:21:39.706Z,1.37
2019-06-10T23:24:24.562Z,1.57
2019-06-10T23:27:09.569Z,1.42
2019-06-10T23:29:56.010Z,1.92
2019-06-10T23:32:42.272Z,1.92
2019-06-10T23:35:27.652Z,1.90
2019-06-10T23:38:13.134Z,1.65
2019-06-10T23:40:58.896Z,2.15
2019-06-10T23:43:45.658Z,2.20
2019-06-10T23:46:31.979Z,1.70
2019-06-10T23:49:17.004Z,1.85
2019-06-10T23:52:04.962Z,1.90
2019-06-10T23:54:48.736Z,1.98
2019-06-10T23:57:33.606Z,2.02
